createdAt,value
2022-07-30T00:02:16.477Z,96.70
2022-07-30T00:04:44.337Z,96.60
2022-07-30T00:07:12.874Z,96.80
2022-07-30T00:09:40.667Z,97.30
2022-07-30T00:12:10.999Z,97.60
2022-07-30T00:14:40.961Z,98.00
2022-07-30T00:17:10.956Z,98.10
2022-07-30T00:19:40.501Z,98.40
2022-07-30T00:22:09.895Z,98.60
2022-07-30T00:24:37.357Z,98.90
2022-07-30T00:27:05.419Z,99.20
2022-07-30T00:29:32.716Z,99.40
2022-07-30T00:32:00.078Z,99.10
2022-07-30T00:34:27.356Z,98.50
2022-07-30T00:36:55.195Z,98.70
2022-07-30T00:39:22.558Z,99.20
2022-07-30T00:41:58.172Z,99.70
2022-07-30T00:44:29.064Z,99.90
2022-07-30T00:46:57.429Z,99.90
2022-07-30T00:49:27.435Z,99.90
2022-07-30T00:51:55.221Z,99.90
2022-07-30T00:54:22.543Z,99.90
2022-07-30T00:56:50.882Z,99.90
2022-07-30T00:59:20.658Z,99.90
2022-07-30T01:01:48.165Z,99.90
2022-07-30T01:04:19.088Z,99.90
2022-07-30T01:06:46.587Z,99.90
2022-07-30T01:09:16.539Z,99.90
2022-07-30T01:11:46.499Z,99.90
2022-07-30T01:14:14.749Z,99.90
2022-07-30T01:16:45.540Z,99.90
2022-07-30T01:19:52.774Z,99.90
2022-07-30T01:22:26.519Z,99.90
2022-07-30T01:25:04.039Z,99.90
2022-07-30T01:27:40.430Z,99.90
2022-07-30T01:30:10.461Z,99.90
2022-07-30T01:32:43.234Z,99.90
2022-07-30T01:35:14.608Z,99.90
2022-07-30T01:37:44.114Z,99.90
2022-07-30T01:40:14.687Z,99.90
2022-07-30T01:42:44.050Z,99.90
2022-07-30T01:45:15.485Z,99.90
2022-07-30T01:47:44.756Z,99.90
2022-07-30T01:50:14.723Z,99.90
2022-07-30T01:52:49.056Z,99.90
2022-07-30T01:55:20.694Z,99.90
2022-07-30T01:57:49.168Z,99.90
2022-07-30T02:00:18.054Z,99.90
2022-07-30T02:02:46.667Z,99.90
2022-07-30T02:05:14.955Z,99.90
2022-07-30T02:07:51.270Z,99.90
2022-07-30T02:10:41.878Z,99.90
2022-07-30T02:13:11.858Z,99.90
2022-07-30T02:15:44.028Z,99.90
2022-07-30T02:18:23.699Z,99.90
2022-07-30T02:21:00.422Z,99.90
2022-07-30T02:23:35.445Z,99.90
2022-07-30T02:26:04.754Z,99.90
2022-07-30T02:28:39.957Z,99.90
2022-07-30T02:31:17.733Z,99.90
2022-07-30T02:33:49.580Z,99.90
2022-07-30T02:36:20.801Z,99.90
2022-07-30T02:38:52.863Z,99.90
2022-07-30T02:41:24.068Z,99.90
2022-07-30T02:43:53.483Z,99.90
2022-07-30T02:46:23.329Z,99.90
2022-07-30T02:48:53.427Z,99.90
2022-07-30T02:51:22.457Z,99.90
2022-07-30T02:53:53.910Z,99.90
2022-07-30T02:56:25.807Z,99.90
2022-07-30T02:58:57.937Z,99.90
2022-07-30T03:01:26.121Z,99.90
2022-07-30T03:03:58.535Z,99.90
2022-07-30T03:06:32.388Z,99.90
2022-07-30T03:09:01.300Z,99.90
2022-07-30T03:11:31.104Z,99.90
2022-07-30T03:14:01.058Z,99.90
2022-07-30T03:16:31.963Z,99.90
2022-07-30T03:19:05.146Z,99.90
2022-07-30T03:21:35.678Z,99.90
2022-07-30T03:24:05.073Z,99.90
2022-07-30T03:26:35.761Z,99.90
2022-07-30T03:29:07.293Z,99.90
2022-07-30T03:31:39.980Z,99.90
2022-07-30T03:34:14.447Z,99.90
2022-07-30T03:36:42.357Z,99.90
2022-07-30T03:39:11.195Z,99.90
2022-07-30T03:41:39.584Z,99.90
2022-07-30T03:44:10.854Z,99.90
2022-07-30T03:46:42.416Z,99.90
2022-07-30T03:49:10.814Z,99.90
2022-07-30T03:51:39.346Z,99.90
2022-07-30T03:54:13.402Z,99.90
2022-07-30T03:56:42.626Z,99.90
2022-07-30T03:59:10.371Z,99.90
2022-07-30T04:01:37.768Z,99.90
2022-07-30T04:04:11.931Z,99.90
2022-07-30T04:06:39.867Z,99.90
2022-07-30T04:09:11.814Z,99.90
2022-07-30T04:11:42.048Z,99.90
2022-07-30T04:14:10.210Z,99.90
2022-07-30T04:16:47.376Z,99.90
2022-07-30T04:19:27.194Z,99.90
2022-07-30T04:21:57.732Z,99.90
2022-07-30T04:24:27.038Z,99.90
2022-07-30T04:27:01.976Z,99.90
2022-07-30T04:29:30.157Z,99.90
2022-07-30T04:32:00.158Z,99.90
2022-07-30T04:34:28.013Z,99.90
2022-07-30T04:36:57.409Z,99.90
2022-07-30T04:39:25.677Z,99.90
2022-07-30T04:41:53.655Z,99.90
2022-07-30T04:44:21.624Z,99.90
2022-07-30T04:46:49.898Z,99.90
2022-07-30T04:49:19.328Z,99.90
2022-07-30T04:51:48.909Z,99.90
2022-07-30T04:54:18.396Z,99.90
2022-07-30T04:56:50.560Z,99.90
2022-07-30T04:59:25.326Z,99.90
2022-07-30T05:01:56.973Z,99.90
2022-07-30T05:04:25.511Z,99.90
2022-07-30T05:06:57.413Z,99.90
2022-07-30T05:09:25.122Z,99.90
2022-07-30T05:11:54.268Z,99.90
2022-07-30T05:14:22.923Z,99.90
2022-07-30T05:16:51.846Z,99.90
2022-07-30T05:19:23.376Z,99.90
2022-07-30T05:21:51.999Z,99.90
2022-07-30T05:24:23.788Z,99.90
2022-07-30T05:26:52.093Z,99.90
2022-07-30T05:29:20.481Z,99.90
2022-07-30T05:31:48.940Z,99.90
2022-07-30T05:34:17.264Z,99.90
2022-07-30T05:36:47.500Z,99.90
2022-07-30T05:39:15.306Z,99.90
2022-07-30T05:41:45.879Z,99.90
2022-07-30T05:44:13.287Z,99.90
2022-07-30T05:46:41.061Z,99.90
2022-07-30T05:49:11.921Z,99.90
2022-07-30T05:51:40.611Z,99.90
2022-07-30T05:54:09.787Z,99.90
2022-07-30T05:56:40.898Z,99.90
2022-07-30T05:59:08.809Z,99.90
2022-07-30T06:01:36.166Z,99.90
2022-07-30T06:04:03.989Z,99.90
2022-07-30T06:06:31.725Z,99.90
2022-07-30T06:08:59.461Z,99.90
2022-07-30T06:11:27.758Z,99.90
2022-07-30T06:13:55.672Z,99.90
2022-07-30T06:16:25.353Z,99.90
2022-07-30T06:18:53.203Z,99.90
2022-07-30T06:21:21.569Z,99.90
2022-07-30T06:23:49.481Z,99.90
2022-07-30T06:26:20.434Z,99.90
2022-07-30T06:28:50.686Z,99.90
2022-07-30T06:31:18.091Z,99.90
2022-07-30T06:33:45.867Z,99.90
2022-07-30T06:36:14.445Z,99.90
2022-07-30T06:38:42.048Z,99.90
2022-07-30T06:41:12.252Z,99.90
2022-07-30T06:43:39.924Z,99.90
2022-07-30T06:46:09.534Z,99.90
2022-07-30T06:48:39.675Z,99.90
2022-07-30T06:51:09.698Z,99.90
2022-07-30T06:53:42.825Z,99.90
2022-07-30T06:56:10.878Z,99.90
2022-07-30T06:58:38.565Z,99.90
2022-07-30T07:01:06.038Z,99.90
2022-07-30T07:03:39.705Z,99.90
2022-07-30T07:06:10.991Z,99.90
2022-07-30T07:08:41.316Z,99.90
2022-07-30T07:11:08.688Z,99.90
2022-07-30T07:13:43.054Z,99.90
2022-07-30T07:16:10.778Z,99.90
2022-07-30T07:18:38.512Z,99.90
2022-07-30T07:21:06.456Z,99.90
2022-07-30T07:23:41.633Z,99.90
2022-07-30T07:26:10.666Z,99.50
2022-07-30T07:28:40.042Z,99.00
2022-07-30T07:31:08.400Z,97.60
2022-07-30T07:33:38.528Z,97.90
2022-07-30T07:36:06.108Z,96.80
2022-07-30T07:38:36.850Z,97.40
2022-07-30T07:41:08.221Z,98.50
2022-07-30T07:43:35.570Z,96.40
2022-07-30T07:46:03.475Z,95.70
2022-07-30T07:48:30.841Z,95.90
2022-07-30T07:51:00.629Z,95.10
2022-07-30T07:53:30.607Z,94.00
2022-07-30T07:55:58.016Z,92.40
2022-07-30T07:58:28.102Z,92.00
2022-07-30T08:00:56.838Z,91.70
2022-07-30T08:03:24.126Z,89.90
2022-07-30T08:06:00.924Z,88.00
2022-07-30T08:08:33.911Z,87.50
2022-07-30T08:11:01.425Z,84.10
2022-07-30T08:13:51.737Z,83.90
2022-07-30T08:16:21.199Z,81.60
2022-07-30T08:18:48.868Z,79.90
2022-07-30T08:21:16.696Z,78.80
2022-07-30T08:23:44.032Z,78.90
2022-07-30T08:26:11.782Z,77.50
2022-07-30T08:28:39.125Z,77.60
2022-07-30T08:31:06.838Z,77.90
2022-07-30T08:33:37.016Z,75.20
2022-07-30T08:36:09.566Z,75.70
2022-07-30T08:38:38.097Z,73.50
2022-07-30T08:41:05.414Z,73.10
2022-07-30T08:43:35.152Z,74.40
2022-07-30T08:46:06.900Z,73.70
2022-07-30T08:48:35.843Z,73.40
2022-07-30T08:51:03.823Z,72.30
2022-07-30T08:53:36.462Z,72.70
2022-07-30T08:56:08.037Z,73.30
2022-07-30T08:58:35.624Z,72.50
2022-07-30T09:01:04.623Z,72.90
2022-07-30T09:03:32.880Z,72.00
2022-07-30T09:06:07.487Z,74.80
2022-07-30T09:08:37.065Z,75.20
2022-07-30T09:11:04.419Z,73.40
2022-07-30T09:13:37.755Z,73.10
2022-07-30T09:16:06.442Z,70.80
2022-07-30T09:18:35.000Z,69.90
2022-07-30T09:21:26.475Z,68.10
2022-07-30T09:24:03.241Z,67.50
2022-07-30T09:26:35.357Z,65.90
2022-07-30T09:29:26.084Z,65.50
2022-07-30T09:31:59.322Z,64.80
2022-07-30T09:34:28.182Z,66.60
2022-07-30T09:37:03.078Z,65.30
2022-07-30T09:39:43.361Z,64.40
2022-07-30T09:42:32.037Z,62.80
2022-07-30T09:45:07.810Z,61.40
2022-07-30T09:47:39.873Z,63.50
2022-07-30T09:50:08.638Z,62.70
2022-07-30T09:52:44.174Z,64.30
2022-07-30T09:55:33.339Z,65.00
2022-07-30T09:58:07.217Z,63.10
2022-07-30T10:00:36.674Z,63.90
2022-07-30T10:03:34.347Z,62.90
2022-07-30T10:06:05.846Z,62.70
2022-07-30T10:08:42.014Z,60.50
2022-07-30T10:11:23.521Z,61.50
2022-07-30T10:13:57.757Z,59.60
2022-07-30T10:16:29.561Z,59.00
2022-07-30T10:19:05.286Z,59.80
2022-07-30T10:21:37.215Z,58.50
2022-07-30T10:24:46.592Z,61.30
2022-07-30T10:26:54.609Z,60.00
2022-07-30T10:29:33.632Z,60.50
2022-07-30T10:32:02.547Z,61.80
2022-07-30T10:34:34.522Z,61.90
2022-07-30T10:37:06.539Z,63.30
2022-07-30T10:39:47.385Z,63.30
2022-07-30T10:42:49.556Z,61.70
2022-07-30T10:45:23.130Z,61.50
2022-07-30T10:47:51.728Z,61.00
2022-07-30T10:50:26.548Z,60.20
2022-07-30T10:53:02.246Z,62.90
2022-07-30T10:55:37.259Z,62.80
2022-07-30T10:58:12.308Z,63.30
2022-07-30T11:00:56.963Z,63.10
2022-07-30T11:03:39.996Z,63.50
2022-07-30T11:06:17.009Z,61.50
2022-07-30T11:08:52.153Z,61.60
2022-07-30T11:12:02.255Z,57.80
2022-07-30T11:14:16.215Z,58.00
2022-07-30T11:16:43.410Z,58.70
2022-07-30T11:19:56.204Z,58.30
2022-07-30T11:22:29.828Z,57.20
2022-07-30T11:25:12.526Z,59.30
2022-07-30T11:27:48.874Z,59.40
2022-07-30T11:30:17.276Z,57.40
2022-07-30T11:32:50.451Z,59.60
2022-07-30T11:35:23.009Z,58.30
2022-07-30T11:38:12.049Z,58.80
2022-07-30T11:40:45.755Z,58.20
2022-07-30T11:43:35.639Z,57.20
2022-07-30T11:46:16.456Z,58.60
2022-07-30T11:49:00.196Z,58.60
2022-07-30T11:51:28.171Z,59.10
2022-07-30T11:54:06.438Z,59.00
2022-07-30T11:56:34.483Z,61.70
2022-07-30T11:59:08.977Z,63.50
2022-07-30T12:01:36.836Z,63.40
2022-07-30T12:04:06.334Z,61.60
2022-07-30T12:06:36.399Z,62.30
2022-07-30T12:09:04.837Z,64.60
2022-07-30T12:11:34.502Z,64.40
2022-07-30T12:14:03.133Z,62.20
2022-07-30T12:16:32.592Z,61.90
2022-07-30T12:19:09.742Z,60.30
2022-07-30T12:21:39.354Z,61.30
2022-07-30T12:24:07.751Z,60.60
2022-07-30T12:26:37.582Z,58.60
2022-07-30T12:29:10.198Z,60.00
2022-07-30T12:31:40.217Z,59.50
2022-07-30T12:34:24.033Z,57.80
2022-07-30T12:36:54.352Z,58.20
2022-07-30T12:39:27.214Z,55.80
2022-07-30T12:42:01.281Z,57.00
2022-07-30T12:44:44.568Z,56.20
2022-07-30T12:47:38.863Z,56.60
2022-07-30T12:50:16.197Z,56.60
2022-07-30T12:52:51.251Z,57.60
2022-07-30T12:55:27.938Z,59.10
2022-07-30T12:57:55.378Z,58.00
2022-07-30T13:00:24.538Z,57.70
2022-07-30T13:02:52.025Z,57.30
2022-07-30T13:05:19.480Z,58.30
2022-07-30T13:07:57.827Z,58.60
2022-07-30T13:10:30.886Z,57.20
2022-07-30T13:13:00.363Z,59.00
2022-07-30T13:15:27.813Z,58.40
2022-07-30T13:17:55.178Z,57.40
2022-07-30T13:20:22.948Z,57.60
2022-07-30T13:22:52.902Z,59.20
2022-07-30T13:25:20.608Z,61.40
2022-07-30T13:27:50.395Z,60.50
2022-07-30T13:30:17.872Z,62.40
2022-07-30T13:32:47.288Z,62.70
2022-07-30T13:35:15.130Z,60.10
2022-07-30T13:37:42.534Z,59.90
2022-07-30T13:40:10.417Z,60.40
2022-07-30T13:42:38.064Z,62.20
2022-07-30T13:45:08.893Z,61.00
2022-07-30T13:47:36.756Z,60.90
2022-07-30T13:50:04.400Z,61.70
2022-07-30T13:52:31.740Z,63.60
2022-07-30T13:54:59.016Z,63.30
2022-07-30T13:57:28.406Z,63.00
2022-07-30T13:59:57.786Z,65.00
2022-07-30T14:02:27.899Z,65.20
2022-07-30T14:04:55.923Z,65.60
2022-07-30T14:07:23.829Z,64.60
2022-07-30T14:09:54.354Z,63.00
2022-07-30T14:12:22.327Z,64.90
2022-07-30T14:14:49.678Z,63.90
2022-07-30T14:17:16.969Z,62.70
2022-07-30T14:19:44.779Z,63.10
2022-07-30T14:22:12.131Z,63.40
2022-07-30T14:24:39.414Z,63.50
2022-07-30T14:27:07.027Z,64.00
2022-07-30T14:29:34.649Z,61.60
2022-07-30T14:32:04.051Z,63.20
2022-07-30T14:34:34.602Z,62.50
2022-07-30T14:37:02.641Z,62.90
2022-07-30T14:39:30.191Z,61.50
2022-07-30T14:41:58.143Z,60.40
2022-07-30T14:44:27.557Z,61.60
2022-07-30T14:46:57.318Z,60.50
2022-07-30T14:49:24.878Z,59.00
2022-07-30T14:51:53.278Z,59.60
2022-07-30T14:54:22.564Z,59.20
2022-07-30T14:56:58.386Z,60.80
2022-07-30T14:59:29.779Z,57.90
2022-07-30T15:01:57.503Z,58.10
2022-07-30T15:04:27.065Z,58.10
2022-07-30T15:06:54.480Z,57.90
2022-07-30T15:09:21.826Z,58.40
2022-07-30T15:12:08.859Z,59.50
2022-07-30T15:14:41.024Z,59.90
2022-07-30T15:17:09.336Z,59.80
2022-07-30T15:19:37.624Z,58.70
2022-07-30T15:22:18.083Z,58.90
2022-07-30T15:24:45.353Z,59.40
2022-07-30T15:27:16.317Z,62.70
2022-07-30T15:29:44.497Z,60.20
2022-07-30T15:32:13.832Z,62.60
2022-07-30T15:34:41.218Z,63.20
2022-07-30T15:37:09.513Z,62.50
2022-07-30T15:39:39.839Z,61.00
2022-07-30T15:42:07.476Z,59.50
2022-07-30T15:44:42.291Z,61.30
2022-07-30T15:47:15.730Z,62.80
2022-07-30T15:49:45.308Z,60.70
2022-07-30T15:52:13.016Z,60.00
2022-07-30T15:54:40.793Z,60.80
2022-07-30T15:57:08.062Z,59.50
2022-07-30T15:59:38.823Z,59.20
2022-07-30T16:02:08.689Z,59.70
2022-07-30T16:04:35.996Z,59.00
2022-07-30T16:07:06.577Z,58.90
2022-07-30T16:09:36.392Z,60.00
2022-07-30T16:12:07.191Z,58.70
2022-07-30T16:14:40.326Z,60.10
2022-07-30T16:17:13.664Z,59.60
2022-07-30T16:19:44.872Z,61.10
2022-07-30T16:22:18.413Z,61.10
2022-07-30T16:24:51.484Z,59.60
2022-07-30T16:27:21.451Z,58.30
2022-07-30T16:29:48.827Z,58.70
2022-07-30T16:32:16.582Z,58.30
2022-07-30T16:34:46.594Z,58.90
2022-07-30T16:37:15.277Z,60.10
2022-07-30T16:39:42.540Z,60.30
2022-07-30T16:42:13.383Z,61.60
2022-07-30T16:44:40.858Z,60.30
2022-07-30T16:47:13.269Z,59.90
2022-07-30T16:49:41.195Z,60.20
2022-07-30T16:52:11.028Z,59.50
2022-07-30T16:54:43.132Z,59.80
2022-07-30T16:57:11.866Z,60.70
2022-07-30T16:59:39.106Z,61.60
2022-07-30T17:02:11.040Z,61.40
2022-07-30T17:04:41.487Z,59.30
2022-07-30T17:07:08.846Z,59.60
2022-07-30T17:09:38.369Z,59.80
2022-07-30T17:12:11.870Z,59.80
2022-07-30T17:14:41.397Z,61.00
2022-07-30T17:17:14.406Z,62.30
2022-07-30T17:19:42.267Z,61.80
2022-07-30T17:22:09.458Z,61.20
2022-07-30T17:24:36.750Z,61.00
2022-07-30T17:27:04.097Z,61.10
2022-07-30T17:29:31.624Z,62.60
2022-07-30T17:32:02.184Z,61.80
2022-07-30T17:34:32.371Z,62.00
2022-07-30T17:36:59.673Z,62.60
2022-07-30T17:40:26.552Z,62.80
2022-07-30T17:42:15.151Z,61.80
2022-07-30T17:44:44.794Z,62.10
2022-07-30T17:47:16.950Z,62.90
2022-07-30T17:49:48.066Z,62.00
2022-07-30T17:52:21.314Z,63.40
2022-07-30T17:54:51.295Z,63.20
2022-07-30T17:57:18.671Z,60.90
2022-07-30T17:59:48.549Z,61.60
2022-07-30T18:02:15.937Z,61.10
2022-07-30T18:04:43.401Z,61.20
2022-07-30T18:07:12.778Z,60.50
2022-07-30T18:09:43.015Z,61.60
2022-07-30T18:12:13.133Z,61.90
2022-07-30T18:14:40.366Z,63.00
2022-07-30T18:17:11.248Z,62.90
2022-07-30T18:19:41.497Z,63.40
2022-07-30T18:22:14.734Z,63.00
2022-07-30T18:24:43.947Z,67.20
2022-07-30T18:27:13.277Z,68.00
2022-07-30T18:29:42.967Z,68.20
2022-07-30T18:32:12.874Z,68.70
2022-07-30T18:34:40.116Z,70.10
2022-07-30T18:37:07.438Z,71.00
2022-07-30T18:39:34.782Z,71.90
2022-07-30T18:42:03.696Z,73.00
2022-07-30T18:44:32.093Z,73.50
2022-07-30T18:46:59.493Z,73.50
2022-07-30T18:49:36.557Z,74.00
2022-07-30T18:52:06.156Z,73.50
2022-07-30T18:54:36.215Z,74.00
2022-07-30T18:57:10.047Z,74.20
2022-07-30T18:59:43.350Z,75.20
2022-07-30T19:02:12.810Z,75.00
2022-07-30T19:04:40.106Z,75.80
2022-07-30T19:07:09.499Z,75.00
2022-07-30T19:09:37.556Z,75.00
2022-07-30T19:12:05.812Z,75.60
2022-07-30T19:14:33.409Z,75.90
2022-07-30T19:17:46.335Z,75.60
2022-07-30T19:20:14.486Z,76.50
2022-07-30T19:22:42.300Z,77.60
2022-07-30T19:25:13.149Z,78.90
2022-07-30T19:27:40.677Z,78.70
2022-07-30T19:30:10.923Z,78.30
2022-07-30T19:32:40.534Z,78.00
2022-07-30T19:35:13.537Z,77.70
2022-07-30T19:37:42.190Z,77.80
2022-07-30T19:40:13.399Z,78.20
2022-07-30T19:42:41.664Z,78.50
2022-07-30T19:45:12.131Z,78.70
2022-07-30T19:48:00.149Z,78.80
2022-07-30T19:50:29.098Z,79.10
2022-07-30T19:52:56.571Z,79.10
2022-07-30T19:55:35.034Z,78.30
2022-07-30T19:58:05.359Z,79.10
2022-07-30T20:00:51.854Z,80.00
2022-07-30T20:03:26.131Z,81.10
2022-07-30T20:06:00.176Z,81.50
2022-07-30T20:08:28.132Z,82.30
2022-07-30T20:10:59.216Z,82.60
2022-07-30T20:16:18.397Z,82.10
2022-07-30T20:18:49.690Z,82.30
2022-07-30T20:21:21.036Z,82.50
2022-07-30T20:24:08.483Z,83.00
2022-07-30T20:26:37.675Z,84.30
2022-07-30T20:29:09.260Z,84.40
2022-07-30T20:31:46.619Z,84.30
2022-07-30T20:34:20.724Z,85.20
2022-07-30T20:36:51.988Z,85.30
2022-07-30T20:39:21.431Z,86.20
2022-07-30T20:41:49.170Z,85.70
2022-07-30T20:44:23.514Z,85.30
2022-07-30T20:46:52.692Z,86.70
2022-07-30T20:49:28.757Z,86.70
2022-07-30T20:52:03.418Z,86.20
2022-07-30T20:54:31.793Z,86.10
2022-07-30T20:57:00.702Z,85.70
2022-07-30T20:59:32.107Z,86.10
2022-07-30T21:02:05.003Z,86.10
2022-07-30T21:04:33.799Z,86.30
2022-07-30T21:07:03.890Z,86.20
2022-07-30T21:09:49.931Z,85.90
2022-07-30T21:12:19.740Z,85.30
2022-07-30T21:15:00.363Z,84.20
2022-07-30T21:17:28.256Z,83.10
2022-07-30T21:19:55.625Z,82.90
2022-07-30T21:22:22.998Z,84.70
2022-07-30T21:24:53.464Z,83.80
2022-07-30T21:27:21.234Z,84.40
2022-07-30T21:29:57.969Z,84.40
2022-07-30T21:32:26.624Z,84.40
2022-07-30T21:34:54.574Z,83.50
2022-07-30T21:37:24.831Z,83.20
2022-07-30T21:40:06.440Z,84.20
2022-07-30T21:42:36.143Z,84.00
2022-07-30T21:45:15.991Z,84.00
2022-07-30T21:47:47.718Z,85.00
2022-07-30T21:50:17.843Z,85.80
2022-07-30T21:52:45.773Z,87.00
2022-07-30T21:55:13.603Z,87.80
2022-07-30T21:57:42.129Z,87.80
2022-07-30T22:00:21.896Z,87.70
2022-07-30T22:02:53.876Z,88.00
2022-07-30T22:05:23.475Z,87.80
2022-07-30T22:07:51.192Z,88.30
2022-07-30T22:10:21.287Z,88.70
2022-07-30T22:12:49.022Z,89.40
2022-07-30T22:15:18.841Z,88.50
2022-07-30T22:20:33.638Z,87.60
2022-07-30T22:23:03.204Z,87.80
2022-07-30T22:25:39.770Z,88.20
2022-07-30T22:28:11.883Z,88.80
2022-07-30T22:30:43.570Z,89.40
2022-07-30T22:33:19.911Z,90.20
2022-07-30T22:35:51.191Z,90.40
2022-07-30T22:38:21.063Z,90.30
2022-07-30T22:40:50.246Z,90.70
2022-07-30T22:43:18.013Z,90.80
2022-07-30T22:45:48.774Z,91.00
2022-07-30T22:48:21.738Z,90.90
2022-07-30T22:50:53.929Z,90.90
2022-07-30T22:54:03.098Z,90.80
2022-07-30T22:56:15.766Z,90.40
2022-07-30T22:58:58.672Z,89.20
2022-07-30T23:01:25.946Z,89.40
2022-07-30T23:03:53.399Z,90.40
2022-07-30T23:06:21.218Z,90.40
2022-07-30T23:08:50.383Z,90.40
2022-07-30T23:11:20.774Z,89.80
2022-07-30T23:12:15.970Z,81.90
2022-07-30T23:12:31.316Z,88.30
2022-07-30T23:13:48.145Z,89.90
2022-07-30T23:16:15.975Z,90.40
2022-07-30T23:18:45.624Z,89.40
2022-07-30T23:21:12.997Z,90.40
2022-07-30T23:23:40.572Z,90.60
2022-07-30T23:26:08.548Z,90.60
2022-07-30T23:28:38.596Z,90.90
2022-07-30T23:31:05.929Z,91.30
2022-07-30T23:33:33.747Z,90.90
2022-07-30T23:36:01.580Z,90.30
2022-07-30T23:38:31.611Z,89.90
2022-07-30T23:41:03.993Z,89.70
2022-07-30T23:43:32.206Z,89.40
2022-07-30T23:46:01.736Z,89.20
2022-07-30T23:48:29.527Z,89.50
2022-07-30T23:50:59.030Z,89.90
2022-07-30T23:53:26.378Z,90.00
2022-07-30T23:55:53.686Z,89.70
2022-07-30T23:58:21.246Z,89.60
